This is the latest recevied weather packets stored in our database for station/object N5SNT-2. If no packets are shown the sender has not sent any weather packets the latest 10 day(s).
| Time | Temp. | Humidity | Pressure | Rain* | Wind** | Luminosity | Snow |
|---|---|---|---|---|---|---|---|
| 1777729943 | 14.44° C | 76% | 1024 hPa | 0 mm | - | 180 W/m² | - |
| 1777729044 | 13.89° C | 79% | 1024 hPa | 0 mm | - | 125 W/m² | - |
| 1777728743 | 13.33° C | 80% | 1024 hPa | 0 mm | - | 104 W/m² | - |
| 1777728444 | 13.33° C | 80% | 1024 hPa | 0 mm | - | 114 W/m² | - |
| 1777728143 | 13.33° C | 81% | 1024 hPa | 0 mm | - | 103 W/m² | - |
| 1777727844 | 12.78° C | 82% | 1024 hPa | 0 mm | - | 92 W/m² | - |
| 1777727543 | 12.78° C | 83% | 1024 hPa | 0 mm | - | 81 W/m² | - |
| 1777727244 | 12.22° C | 84% | 1024 hPa | 0 mm | - | 74 W/m² | - |
| 1777726944 | 12.22° C | 86% | 1024 hPa | 0 mm | - | 53 W/m² | - |
| 1777726643 | 12.22° C | 86% | 1024 hPa | 0 mm | - | 59 W/m² | - |
| 1777725443 | 10.56° C | 90% | 1023 hPa | 0 mm | - | 30 W/m² | - |
| 1777724544 | 10.56° C | 91% | 1023 hPa | 0 mm | - | 22 W/m² | - |
| 1777724244 | 10.56° C | 91% | 1023 hPa | 0 mm | - | 19 W/m² | - |
| 1777723343 | 10.56° C | 91% | 1023 hPa | 0 mm | - | 9 W/m² | - |
| 1777722743 | 10.56° C | 92% | 1023 hPa | 0 mm | - | 4 W/m² | - |
| 1777722444 | 10.56° C | 92% | 1023 hPa | 0 mm | - | 2 W/m² | - |
| 1777722143 | 10° C | 92% | 1022 hPa | 0 mm | - | 1 W/m² | - |
| 1777721843 | 10° C | 92% | 1022 hPa | 0 mm | - | 0 W/m² | - |
| 1777721543 | 10° C | 92% | 1023 hPa | 0 mm | - | 0 W/m² | - |
| 1777721244 | 10.56° C | 92% | 1023 hPa | 0 mm | - | 0 W/m² | - |
| 1777720944 | 10.56° C | 92% | 1022 hPa | 0 mm | - | 0 W/m² | - |
| 1777720643 | 10.56° C | 92% | 1022 hPa | 0 mm | - | 0 W/m² | - |
| 1777720343 | 10.56° C | 93% | 1022 hPa | 0 mm | - | 0 W/m² | - |
| 1777720043 | 10.56° C | 93% | 1022 hPa | 0 mm | - | 0 W/m² | - |
| 1777719743 | 10.56° C | 93% | 1022 hPa | 0 mm | - | 0 W/m² | - |
* Rain latest hour (hover to see other rain measurements)
** Current wind speed in m/s (hover to see current wind gust speed)